createdAt,value
2018-04-08T00:02:12.089Z,92.60
2018-04-08T00:04:39.652Z,93.00
2018-04-08T00:07:07.231Z,93.10
2018-04-08T00:09:35.548Z,93.10
2018-04-08T00:12:03.887Z,93.60
2018-04-08T00:14:31.438Z,93.60
2018-04-08T00:16:59.753Z,94.10
2018-04-08T00:19:27.329Z,94.10
2018-04-08T00:21:54.897Z,94.10
2018-04-08T00:24:22.472Z,94.00
2018-04-08T00:26:50.028Z,94.30
2018-04-08T00:29:17.600Z,94.10
2018-04-08T00:31:45.147Z,94.20
2018-04-08T00:34:12.710Z,94.40
2018-04-08T00:36:40.274Z,94.60
2018-04-08T00:39:08.052Z,95.40
2018-04-08T00:41:36.364Z,95.60
2018-04-08T00:44:03.946Z,95.50
2018-04-08T00:46:32.271Z,95.70
2018-04-08T00:49:00.611Z,96.30
2018-04-08T00:51:28.176Z,96.30
2018-04-08T00:54:08.292Z,96.80
2018-04-08T00:56:37.492Z,97.10
2018-04-08T00:59:05.068Z,97.10
2018-04-08T01:01:32.617Z,97.00
2018-04-08T01:04:00.166Z,96.90
2018-04-08T01:06:27.745Z,96.80
2018-04-08T01:08:55.289Z,96.90
2018-04-08T01:11:23.457Z,96.90
2018-04-08T01:13:51.005Z,96.90
2018-04-08T01:16:18.571Z,97.10
2018-04-08T01:18:46.112Z,96.90
2018-04-08T01:21:14.448Z,96.70
2018-04-08T01:23:42.998Z,96.70
2018-04-08T01:26:10.568Z,96.70
2018-04-08T01:28:38.111Z,96.70
2018-04-08T01:31:05.677Z,96.80
2018-04-08T01:33:33.229Z,97.40
2018-04-08T01:36:00.796Z,98.00
2018-04-08T01:38:28.361Z,98.30
2018-04-08T01:40:55.924Z,98.20
2018-04-08T01:43:23.457Z,98.30
2018-04-08T01:45:51.018Z,98.10
2018-04-08T01:48:18.570Z,98.20
2018-04-08T01:50:46.886Z,98.60
2018-04-08T01:53:15.215Z,98.90
2018-04-08T01:55:43.535Z,99.20
2018-04-08T01:58:11.111Z,99.20
2018-04-08T02:00:38.653Z,99.30
2018-04-08T02:03:06.229Z,99.30
2018-04-08T02:05:33.788Z,99.20
2018-04-08T02:08:01.369Z,99.30
2018-04-08T02:10:28.915Z,99.30
2018-04-08T02:12:56.484Z,99.30
2018-04-08T02:15:24.051Z,99.30
2018-04-08T02:17:51.626Z,99.30
2018-04-08T02:20:19.932Z,99.60
2018-04-08T02:22:47.498Z,99.60
2018-04-08T02:25:15.061Z,99.60
2018-04-08T02:27:42.626Z,99.60
2018-04-08T02:30:10.177Z,99.70
2018-04-08T02:32:37.762Z,99.90
2018-04-08T02:35:05.325Z,99.90
2018-04-08T02:37:32.889Z,99.90
2018-04-08T02:40:00.450Z,99.90
2018-04-08T02:42:28.035Z,99.90
2018-04-08T02:44:55.584Z,99.90
2018-04-08T02:47:23.161Z,99.90
2018-04-08T02:49:51.487Z,99.90
2018-04-08T02:52:19.036Z,99.90
2018-04-08T02:54:46.602Z,99.90
2018-04-08T02:57:14.145Z,99.90
2018-04-08T02:59:41.720Z,99.90
2018-04-08T03:02:09.287Z,99.90
2018-04-08T03:04:36.888Z,99.90
2018-04-08T03:07:05.234Z,99.90
2018-04-08T03:09:32.820Z,99.90
2018-04-08T03:12:00.389Z,99.90
2018-04-08T03:14:27.960Z,99.90
2018-04-08T03:16:56.283Z,99.90
2018-04-08T03:19:23.862Z,99.90
2018-04-08T03:21:51.418Z,99.90
2018-04-08T03:24:19.763Z,99.90
2018-04-08T03:26:47.314Z,99.90
2018-04-08T03:29:14.884Z,99.90
2018-04-08T03:31:42.455Z,99.90
2018-04-08T03:34:10.019Z,99.90
2018-04-08T03:36:37.559Z,99.90
2018-04-08T03:39:05.901Z,99.90
2018-04-08T03:41:34.224Z,99.90
2018-04-08T03:44:01.801Z,99.90
2018-04-08T03:46:30.124Z,99.90
2018-04-08T03:48:58.445Z,99.90
2018-04-08T03:51:26.013Z,99.90
2018-04-08T03:53:53.566Z,99.90
2018-04-08T03:56:21.149Z,99.90
2018-04-08T03:58:48.770Z,99.90
2018-04-08T04:01:16.337Z,99.90
2018-04-08T04:03:43.885Z,99.90
2018-04-08T04:06:11.448Z,99.90
2018-04-08T04:08:39.013Z,99.90
2018-04-08T04:11:06.617Z,99.90
2018-04-08T04:13:34.189Z,99.90
2018-04-08T04:16:02.576Z,99.90
2018-04-08T04:18:42.790Z,99.90
2018-04-08T04:21:22.226Z,99.90
2018-04-08T04:24:01.543Z,99.90
2018-04-08T04:26:31.112Z,99.90
2018-04-08T04:28:58.700Z,99.90
2018-04-08T04:31:26.306Z,99.90
2018-04-08T04:33:54.861Z,99.90
2018-04-08T04:36:22.440Z,99.90
2018-04-08T04:38:50.010Z,99.90
2018-04-08T04:41:17.577Z,99.90
2018-04-08T04:43:45.175Z,99.90
2018-04-08T04:46:12.755Z,99.90
2018-04-08T04:48:40.328Z,99.90
2018-04-08T04:51:07.876Z,99.90
2018-04-08T04:53:35.453Z,99.90
2018-04-08T04:56:03.008Z,99.90
2018-04-08T04:58:30.589Z,99.90
2018-04-08T05:00:58.146Z,99.90
2018-04-08T05:03:25.727Z,99.90
2018-04-08T05:05:54.062Z,99.90
2018-04-08T05:08:21.623Z,99.90
2018-04-08T05:10:49.173Z,99.90
2018-04-08T05:13:16.743Z,99.90
2018-04-08T05:15:44.297Z,99.90
2018-04-08T05:18:11.863Z,99.90
2018-04-08T05:20:39.428Z,99.90
2018-04-08T05:23:07.015Z,99.90
2018-04-08T05:25:34.580Z,99.90
2018-04-08T05:28:02.906Z,99.90
2018-04-08T05:30:30.469Z,99.90
2018-04-08T05:32:58.026Z,99.90
2018-04-08T05:35:25.599Z,99.90
2018-04-08T05:37:53.160Z,99.90
2018-04-08T05:40:20.762Z,99.90
2018-04-08T05:42:49.088Z,99.90
2018-04-08T05:45:16.664Z,99.90
2018-04-08T05:47:44.213Z,99.90
2018-04-08T05:50:11.798Z,99.90
2018-04-08T05:52:39.365Z,99.90
2018-04-08T05:55:06.965Z,99.90
2018-04-08T05:57:34.565Z,99.90
2018-04-08T06:00:02.162Z,99.90
2018-04-08T06:02:30.479Z,99.90
2018-04-08T06:04:58.145Z,99.90
2018-04-08T06:07:25.696Z,99.90
2018-04-08T06:09:53.261Z,99.90
2018-04-08T06:12:20.803Z,99.90
2018-04-08T06:14:48.354Z,99.90
2018-04-08T06:17:15.937Z,99.90
2018-04-08T06:19:43.486Z,99.90
2018-04-08T06:22:11.058Z,99.90
2018-04-08T06:24:38.621Z,99.90
2018-04-08T06:27:06.193Z,99.90
2018-04-08T06:29:33.741Z,99.90
2018-04-08T06:32:01.321Z,99.90
2018-04-08T06:34:28.875Z,99.90
2018-04-08T06:36:56.447Z,99.90
2018-04-08T06:39:23.983Z,99.90
2018-04-08T06:41:51.554Z,99.90
2018-04-08T06:44:19.095Z,99.80
2018-04-08T06:46:46.678Z,99.60
2018-04-08T06:49:14.235Z,99.30
2018-04-08T06:51:41.837Z,98.30
2018-04-08T06:54:10.164Z,97.70
2018-04-08T06:56:37.717Z,97.70
2018-04-08T06:59:05.309Z,97.50
2018-04-08T07:01:32.873Z,97.20
2018-04-08T07:04:00.549Z,96.90
2018-04-08T07:06:28.884Z,96.30
2018-04-08T07:08:57.230Z,95.90
2018-04-08T07:11:24.785Z,95.90
2018-04-08T07:13:52.370Z,95.60
2018-04-08T07:16:19.930Z,95.40
2018-04-08T07:18:47.509Z,95.50
2018-04-08T07:21:15.076Z,95.20
2018-04-08T07:23:42.649Z,94.90
2018-04-08T07:26:10.214Z,94.60
2018-04-08T07:28:37.794Z,94.20
2018-04-08T07:31:06.125Z,93.60
2018-04-08T07:33:33.698Z,93.60
2018-04-08T07:36:01.260Z,93.90
2018-04-08T07:38:28.884Z,93.00
2018-04-08T07:40:56.419Z,92.50
2018-04-08T07:43:23.977Z,91.90
2018-04-08T07:45:51.552Z,91.50
2018-04-08T07:48:19.114Z,91.10
2018-04-08T07:50:46.689Z,90.40
2018-04-08T07:53:14.233Z,89.40
2018-04-08T07:55:41.821Z,88.40
2018-04-08T07:58:09.367Z,88.20
2018-04-08T08:00:36.944Z,88.40
2018-04-08T08:03:04.489Z,87.30
2018-04-08T08:05:32.076Z,86.10
2018-04-08T08:07:59.633Z,85.90
2018-04-08T08:10:27.217Z,85.30
2018-04-08T08:12:55.536Z,83.50
2018-04-08T08:15:23.104Z,83.50
2018-04-08T08:17:50.658Z,83.20
2018-04-08T08:20:18.236Z,82.10
2018-04-08T08:22:45.788Z,81.40
2018-04-08T08:25:13.341Z,80.10
2018-04-08T08:27:40.921Z,78.60
2018-04-08T08:30:08.494Z,77.50
2018-04-08T08:32:36.077Z,76.40
2018-04-08T08:35:03.614Z,74.60
2018-04-08T08:37:31.183Z,72.80
2018-04-08T08:39:58.733Z,73.20
2018-04-08T08:42:26.307Z,73.50
2018-04-08T08:44:54.632Z,71.90
2018-04-08T08:47:22.201Z,71.90
2018-04-08T08:49:49.756Z,70.70
2018-04-08T08:52:17.342Z,69.60
2018-04-08T08:54:44.930Z,69.60
2018-04-08T08:57:13.275Z,68.40
2018-04-08T08:59:40.980Z,68.20
2018-04-08T09:02:08.599Z,68.00
2018-04-08T09:04:36.275Z,67.50
2018-04-08T09:07:03.908Z,66.90
2018-04-08T09:09:31.472Z,66.10
2018-04-08T09:11:59.069Z,64.10
2018-04-08T09:14:27.370Z,62.40
2018-04-08T09:16:54.916Z,62.30
2018-04-08T09:19:35.066Z,61.80
2018-04-08T09:25:27.141Z,60.00
2018-04-08T09:27:54.723Z,59.40
2018-04-08T09:30:22.278Z,59.10
2018-04-08T09:32:49.851Z,58.20
2018-04-08T09:35:17.417Z,58.20
2018-04-08T09:37:45.006Z,57.60
2018-04-08T09:40:12.552Z,58.00
2018-04-08T09:42:40.180Z,57.50
2018-04-08T09:45:07.766Z,58.10
2018-04-08T09:47:35.308Z,57.10
2018-04-08T09:50:02.879Z,57.20
2018-04-08T09:52:30.429Z,56.60
2018-04-08T09:54:58.005Z,55.80
2018-04-08T09:57:25.564Z,55.40
2018-04-08T09:59:53.150Z,54.80
2018-04-08T10:02:27.095Z,54.80
2018-04-08T10:04:54.678Z,54.70
2018-04-08T10:07:22.229Z,54.20
2018-04-08T10:09:49.816Z,54.10
2018-04-08T10:12:17.488Z,53.30
2018-04-08T10:14:45.843Z,53.00
2018-04-08T10:17:13.392Z,53.00
2018-04-08T10:19:40.992Z,52.10
2018-04-08T10:22:08.547Z,51.60
2018-04-08T10:24:36.132Z,50.60
2018-04-08T10:27:03.674Z,50.00
2018-04-08T10:29:31.262Z,50.30
2018-04-08T10:31:58.825Z,49.40
2018-04-08T10:34:26.404Z,47.30
2018-04-08T10:36:53.953Z,46.80
2018-04-08T10:39:21.533Z,47.60
2018-04-08T10:41:49.075Z,46.70
2018-04-08T10:44:16.664Z,46.90
2018-04-08T10:46:44.213Z,46.30
2018-04-08T10:49:11.800Z,46.10
2018-04-08T10:51:39.395Z,44.70
2018-04-08T10:54:06.978Z,45.00
2018-04-08T10:56:34.554Z,44.50
2018-04-08T10:59:02.109Z,44.20
2018-04-08T11:01:29.703Z,42.80
2018-04-08T11:03:57.258Z,41.60
2018-04-08T11:06:24.836Z,42.00
2018-04-08T11:08:53.161Z,41.90
2018-04-08T11:11:20.730Z,41.90
2018-04-08T11:13:48.275Z,41.50
2018-04-08T11:16:15.843Z,41.20
2018-04-08T11:18:43.389Z,41.00
2018-04-08T11:21:10.984Z,40.60
2018-04-08T11:23:38.529Z,40.40
2018-04-08T11:26:06.100Z,40.30
2018-04-08T11:28:33.647Z,38.90
2018-04-08T11:31:01.216Z,38.70
2018-04-08T11:33:28.768Z,38.10
2018-04-08T11:35:56.348Z,36.10
2018-04-08T11:38:23.885Z,35.70
2018-04-08T11:40:51.441Z,35.50
2018-04-08T11:43:19.082Z,35.30
2018-04-08T11:45:46.636Z,35.10
2018-04-08T11:48:14.212Z,34.00
2018-04-08T11:50:41.751Z,34.00
2018-04-08T11:53:09.327Z,38.30
2018-04-08T11:55:36.901Z,38.20
2018-04-08T11:58:04.486Z,40.00
2018-04-08T12:00:32.027Z,39.70
2018-04-08T12:02:59.603Z,38.10
2018-04-08T12:05:27.157Z,40.20
2018-04-08T12:07:54.732Z,39.80
2018-04-08T12:10:22.286Z,40.70
2018-04-08T12:12:49.868Z,40.60
2018-04-08T12:15:18.232Z,39.50
2018-04-08T12:17:45.794Z,39.50
2018-04-08T12:20:13.331Z,40.30
2018-04-08T12:22:40.890Z,39.80
2018-04-08T12:25:08.467Z,39.30
2018-04-08T12:27:36.019Z,39.00
2018-04-08T12:30:03.591Z,39.90
2018-04-08T12:32:31.126Z,39.60
2018-04-08T12:34:58.696Z,40.30
2018-04-08T12:37:26.246Z,40.20
2018-04-08T12:39:53.828Z,39.40
2018-04-08T12:42:22.160Z,38.50
2018-04-08T12:44:49.735Z,38.50
2018-04-08T12:47:17.279Z,38.70
2018-04-08T12:49:44.848Z,38.40
2018-04-08T12:52:12.404Z,35.50
2018-04-08T12:54:39.968Z,37.80
2018-04-08T12:57:07.646Z,37.80
2018-04-08T12:59:35.318Z,38.10
2018-04-08T13:02:02.926Z,37.90
2018-04-08T13:04:30.499Z,37.50
2018-04-08T13:06:58.051Z,36.40
2018-04-08T13:09:25.633Z,36.90
2018-04-08T13:11:53.166Z,36.50
2018-04-08T13:14:20.747Z,35.30
2018-04-08T13:16:48.303Z,35.00
2018-04-08T13:19:15.860Z,33.60
2018-04-08T13:21:43.437Z,30.20
2018-04-08T13:24:10.989Z,31.30
2018-04-08T13:26:38.563Z,32.00
2018-04-08T13:29:06.104Z,32.30
2018-04-08T13:31:33.764Z,32.40
2018-04-08T13:34:02.101Z,33.10
2018-04-08T13:36:29.684Z,33.10
2018-04-08T13:38:57.241Z,32.00
2018-04-08T13:41:24.820Z,30.40
2018-04-08T13:43:52.365Z,29.50
2018-04-08T13:46:19.943Z,29.50
2018-04-08T13:48:47.507Z,29.10
2018-04-08T13:51:15.089Z,29.60
2018-04-08T13:53:42.651Z,28.10
2018-04-08T13:56:10.224Z,28.30
2018-04-08T13:58:37.773Z,29.60
2018-04-08T14:01:05.315Z,30.00
2018-04-08T14:03:33.660Z,29.20
2018-04-08T14:06:01.215Z,29.20
2018-04-08T14:08:28.801Z,28.60
2018-04-08T14:10:56.353Z,29.60
2018-04-08T14:13:23.946Z,28.90
2018-04-08T14:15:51.496Z,28.30
2018-04-08T14:18:19.077Z,29.20
2018-04-08T14:20:46.627Z,29.50
2018-04-08T14:23:14.220Z,29.80
2018-04-08T14:25:41.764Z,29.30
2018-04-08T14:28:10.122Z,29.00
2018-04-08T14:30:37.688Z,28.90
2018-04-08T14:33:05.270Z,28.90
2018-04-08T14:35:33.647Z,29.60
2018-04-08T14:38:01.185Z,29.60
2018-04-08T14:40:28.773Z,28.60
2018-04-08T14:42:57.075Z,29.10
2018-04-08T14:45:24.638Z,29.10
2018-04-08T14:47:52.190Z,28.90
2018-04-08T14:50:19.757Z,29.10
2018-04-08T14:52:47.303Z,29.10
2018-04-08T14:55:14.890Z,29.10
2018-04-08T14:57:43.229Z,28.60
2018-04-08T15:00:10.925Z,28.60
2018-04-08T15:02:38.501Z,29.40
2018-04-08T15:05:06.082Z,30.00
2018-04-08T15:07:33.638Z,29.50
2018-04-08T15:10:02.012Z,29.30
2018-04-08T15:12:29.551Z,29.30
2018-04-08T15:14:57.128Z,29.20
2018-04-08T15:17:24.693Z,29.90
2018-04-08T15:19:52.263Z,30.00
2018-04-08T15:22:20.800Z,29.90
2018-04-08T15:24:48.364Z,29.50
2018-04-08T15:27:15.919Z,29.80
2018-04-08T15:29:43.485Z,29.70
2018-04-08T15:32:11.042Z,29.70
2018-04-08T15:34:38.636Z,29.50
2018-04-08T15:37:06.196Z,29.30
2018-04-08T15:39:33.778Z,29.40
2018-04-08T15:42:01.326Z,29.30
2018-04-08T15:44:29.636Z,29.50
2018-04-08T15:46:57.210Z,29.50
2018-04-08T15:49:24.744Z,29.80
2018-04-08T15:51:52.319Z,29.80
2018-04-08T15:54:19.873Z,29.80
2018-04-08T15:56:47.456Z,30.00
2018-04-08T15:59:15.004Z,29.70
2018-04-08T16:01:42.582Z,29.90
2018-04-08T16:04:10.125Z,30.00
2018-04-08T16:06:37.813Z,30.00
2018-04-08T16:09:07.194Z,30.30
2018-04-08T16:11:34.758Z,29.60
2018-04-08T16:14:02.312Z,29.80
2018-04-08T16:16:29.974Z,29.90
2018-04-08T16:18:57.523Z,29.50
2018-04-08T16:21:25.118Z,29.50
2018-04-08T16:23:52.668Z,29.80
2018-04-08T16:26:20.284Z,29.90
2018-04-08T16:28:47.957Z,30.10
2018-04-08T16:31:15.549Z,30.30
2018-04-08T16:33:43.100Z,30.70
2018-04-08T16:36:10.665Z,30.50
2018-04-08T16:38:38.216Z,30.60
2018-04-08T16:41:05.756Z,30.10
2018-04-08T16:43:33.322Z,30.00
2018-04-08T16:46:00.867Z,30.00
2018-04-08T16:48:28.448Z,29.90
2018-04-08T16:50:55.998Z,29.70
2018-04-08T16:53:23.568Z,29.40
2018-04-08T16:55:51.131Z,29.20
2018-04-08T16:58:18.707Z,29.50
2018-04-08T17:00:46.253Z,29.30
2018-04-08T17:03:13.828Z,28.90
2018-04-08T17:05:41.381Z,28.50
2018-04-08T17:08:08.995Z,28.60
2018-04-08T17:10:37.306Z,29.20
2018-04-08T17:13:04.871Z,29.20
2018-04-08T17:15:32.409Z,29.60
2018-04-08T17:18:00.036Z,29.70
2018-04-08T17:20:27.592Z,30.00
2018-04-08T17:22:55.945Z,30.70
2018-04-08T17:25:23.507Z,30.10
2018-04-08T17:27:51.078Z,30.70
2018-04-08T17:30:18.636Z,31.30
2018-04-08T17:32:46.215Z,31.70
2018-04-08T17:35:13.773Z,32.10
2018-04-08T17:37:41.348Z,32.30
2018-04-08T17:40:09.684Z,33.00
2018-04-08T17:42:37.235Z,32.90
2018-04-08T17:45:05.572Z,34.10
2018-04-08T17:47:33.136Z,34.10
2018-04-08T17:50:00.725Z,34.80
2018-04-08T17:52:28.272Z,34.00
2018-04-08T17:54:55.850Z,34.50
2018-04-08T17:57:24.168Z,35.60
2018-04-08T17:59:52.502Z,35.60
2018-04-08T18:02:20.054Z,35.60
2018-04-08T18:04:47.615Z,35.90
2018-04-08T18:07:15.165Z,36.40
2018-04-08T18:09:42.737Z,36.80
2018-04-08T18:12:10.293Z,37.40
2018-04-08T18:14:37.896Z,37.90
2018-04-08T18:17:05.457Z,38.30
2018-04-08T18:19:33.032Z,38.00
2018-04-08T18:22:01.367Z,38.40
2018-04-08T18:24:28.954Z,38.40
2018-04-08T18:26:56.520Z,39.20
2018-04-08T18:29:24.872Z,40.10
2018-04-08T18:31:52.427Z,40.10
2018-04-08T18:34:20.000Z,42.70
2018-04-08T18:36:47.554Z,41.00
2018-04-08T18:39:15.129Z,41.20
2018-04-08T18:41:42.682Z,40.90
2018-04-08T18:44:10.225Z,41.20
2018-04-08T18:46:37.805Z,42.50
2018-04-08T18:49:05.361Z,43.10
2018-04-08T18:51:32.962Z,44.10
2018-04-08T18:54:00.534Z,44.60
2018-04-08T18:56:28.125Z,45.70
2018-04-08T18:58:55.681Z,46.20
2018-04-08T19:01:23.252Z,46.80
2018-04-08T19:03:50.813Z,46.80
2018-04-08T19:06:18.394Z,47.40
2018-04-08T19:08:45.945Z,47.90
2018-04-08T19:11:13.520Z,48.40
2018-04-08T19:13:41.841Z,49.30
2018-04-08T19:16:09.411Z,49.30
2018-04-08T19:18:37.730Z,50.30
2018-04-08T19:21:06.106Z,50.50
2018-04-08T19:23:33.660Z,50.50
2018-04-08T19:26:01.233Z,50.50
2018-04-08T19:28:29.557Z,50.40
2018-04-08T19:30:57.137Z,50.40
2018-04-08T19:33:25.446Z,50.30
2018-04-08T19:35:53.786Z,51.40
2018-04-08T19:38:21.336Z,51.40
2018-04-08T19:40:48.901Z,51.70
2018-04-08T19:43:16.451Z,52.30
2018-04-08T19:45:44.032Z,52.10
2018-04-08T19:48:11.591Z,52.20
2018-04-08T19:50:39.176Z,52.10
2018-04-08T19:53:07.486Z,52.40
2018-04-08T19:55:35.049Z,52.40
2018-04-08T19:58:02.632Z,53.40
2018-04-08T20:00:30.189Z,54.30
2018-04-08T20:02:57.757Z,55.00
2018-04-08T20:05:25.317Z,54.90
2018-04-08T20:07:52.900Z,55.10
2018-04-08T20:10:20.472Z,55.90
2018-04-08T20:12:48.049Z,56.00
2018-04-08T20:15:16.369Z,56.20
2018-04-08T20:17:43.941Z,56.20
2018-04-08T20:20:11.493Z,55.90
2018-04-08T20:22:39.079Z,55.70
2018-04-08T20:25:06.637Z,56.00
2018-04-08T20:27:34.309Z,56.00
2018-04-08T20:30:01.972Z,56.00
2018-04-08T20:32:30.313Z,56.40
2018-04-08T20:34:57.870Z,56.30
2018-04-08T20:37:25.460Z,56.80
2018-04-08T20:39:53.009Z,57.00
2018-04-08T20:42:20.552Z,57.50
2018-04-08T20:44:48.138Z,57.50
2018-04-08T20:47:15.695Z,57.60
2018-04-08T20:49:43.276Z,58.00
2018-04-08T20:52:11.596Z,58.70
2018-04-08T20:54:39.185Z,58.70
2018-04-08T20:57:06.754Z,59.00
2018-04-08T20:59:34.341Z,59.20
2018-04-08T21:02:02.647Z,59.60
2018-04-08T21:04:30.223Z,59.60
2018-04-08T21:06:57.777Z,60.20
2018-04-08T21:09:25.377Z,61.10
2018-04-08T21:11:53.005Z,61.20
2018-04-08T21:14:20.580Z,61.70
2018-04-08T21:16:48.125Z,62.00
2018-04-08T21:19:15.710Z,62.10
2018-04-08T21:21:43.270Z,62.90
2018-04-08T21:24:10.848Z,63.20
2018-04-08T21:26:39.168Z,63.60
2018-04-08T21:29:06.760Z,63.50
2018-04-08T21:31:34.317Z,64.10
2018-04-08T21:34:01.877Z,64.10
2018-04-08T21:36:29.461Z,64.40
2018-04-08T21:38:57.772Z,65.00
2018-04-08T21:41:25.345Z,65.00
2018-04-08T21:43:52.890Z,65.40
2018-04-08T21:46:20.457Z,66.30
2018-04-08T21:48:48.034Z,66.50
2018-04-08T21:51:15.617Z,66.60
2018-04-08T21:53:43.181Z,66.80
2018-04-08T21:56:10.761Z,66.70
2018-04-08T21:58:39.084Z,67.80
2018-04-08T22:01:06.661Z,67.70
2018-04-08T22:03:34.215Z,68.00
2018-04-08T22:06:01.791Z,68.10
2018-04-08T22:08:29.337Z,69.30
2018-04-08T22:10:56.920Z,69.80
2018-04-08T22:13:24.562Z,71.10
2018-04-08T22:15:52.253Z,71.10
2018-04-08T22:18:19.902Z,70.80
2018-04-08T22:20:48.245Z,70.00
2018-04-08T22:23:15.827Z,70.00
2018-04-08T22:25:43.391Z,70.20
2018-04-08T22:28:10.957Z,70.60
2018-04-08T22:30:38.517Z,71.00
2018-04-08T22:33:06.098Z,71.60
2018-04-08T22:35:34.417Z,72.20
2018-04-08T22:38:02.000Z,72.10
2018-04-08T22:40:29.545Z,71.80
2018-04-08T22:42:57.123Z,71.40
2018-04-08T22:45:24.755Z,71.40
2018-04-08T22:47:52.364Z,72.00
2018-04-08T22:50:19.918Z,73.10
2018-04-08T22:52:47.480Z,73.40
2018-04-08T22:55:15.016Z,74.00
2018-04-08T22:57:42.583Z,73.80
2018-04-08T23:00:10.132Z,74.80
2018-04-08T23:02:37.704Z,75.30
2018-04-08T23:05:05.255Z,76.10
2018-04-08T23:07:32.850Z,75.50
2018-04-08T23:10:01.173Z,74.90
2018-04-08T23:12:28.755Z,74.80
2018-04-08T23:14:56.317Z,75.10
2018-04-08T23:17:23.873Z,75.30
2018-04-08T23:19:51.440Z,75.90
2018-04-08T23:22:18.997Z,76.20
2018-04-08T23:24:46.581Z,76.50
2018-04-08T23:27:14.899Z,77.20
2018-04-08T23:29:42.469Z,77.10
2018-04-08T23:32:10.004Z,77.30
2018-04-08T23:34:37.580Z,77.60
2018-04-08T23:37:05.136Z,77.80
2018-04-08T23:39:32.712Z,78.20
2018-04-08T23:42:00.265Z,79.00
2018-04-08T23:44:27.874Z,80.20
2018-04-08T23:46:55.403Z,80.50
2018-04-08T23:49:22.989Z,80.90
2018-04-08T23:51:50.547Z,80.70
2018-04-08T23:54:18.130Z,81.30
2018-04-08T23:56:46.451Z,82.10
2018-04-08T23:59:14.089Z,82.10
